LIPR/RMI METAR and TAF weather

Enter ICAO airport designator
Station Type Date Time Source
LIPR METAR 2019/05/26 01:50 UTC NOAA

LIPR 260150Z AUTO 25005KT 9999 SCT097/// 17/13 Q1013


Station Type Date Time Source
LIPR Decoded METAR 2019/05/26 01:50 UTC NOAA

Rimini, Italy (LIPR) 44-02N 012-37E 13M
May 25, 2019 - 09:50 PM EDT / 2019.05.26 0150 UTC
Wind: from the WSW (250 degrees) at 6 MPH (5 KT):0
Visibility: greater than 7 mile(s):0
Sky conditions: partly cloudy
Temperature: 62 F (17 C)
Dew Point: 55 F (13 C)
Relative Humidity: 77%
Pressure (altimeter): 29.91 in. Hg (1013 hPa)
ob: LIPR 260150Z AUTO 25005KT 9999 SCT097/// 17/13 Q1013
cycle: 2

Station Type Date Time Source
LIPR TAF 2016/08/23 03:00 UTC NOAA

TAF LIPR 230200Z 2303/2312 04007KT CAVOK
BECMG 2308/2310 02010KT

Example: see airport list